• Join FlightAware (Why Join?)
  • Login
  • US Flag 
04:51PM EDT


 

Airport Tracker/Info


-or-


 

Live Flight TrackerFlight Track Log ✈ AAL2360 ✈ 22-Apr-2013 ✈ KDFW - KORD

Flight Track Log - Related Links

Times and Time Zones

All times are in EDT time to prevent confusion due to time zone crossing. See the AAL2360 flight status page for this flight to view local times or setup timezone preferences in your user account.

Time Position Orientation Groundspeed Altitude Reporting Facility
EDT Latitude Longitude Course Direction KTS MPH feet Rate Location/Type
03:37PM 32.8500 -97.0333 North 181 208 2,500  Level Dallas / Fort Worth TRACON
03:38PM 32.8000 -97.0000 151° Southeast 235 270 4,200 2,100 Climbing Dallas / Fort Worth TRACON
03:39PM 32.7667 -96.9333 121° Southeast 265 305 6,600 2,340 Climbing Dallas / Fort Worth TRACON
03:40PM 32.7833 -96.8333 79° East 315 362 8,700 1,980 Climbing Dallas / Fort Worth TRACON
03:41PM 33.0882 -96.8015 357° North  Level FlightAware Approximate
03:42PM 33.2066 -96.8100 357° North  Level FlightAware Approximate
03:42PM 32.9239 -96.8094 North 298 343 12,100  Level Fort Worth Center
03:43PM 33.3251 -96.8167 North  Level FlightAware Approximate
03:43PM 33.0178 -96.8114 359° North 343 395 14,500  Level Fort Worth Center
03:44PM 33.1306 -96.8156 358° North 366 421 17,400 2,520 Climbing Fort Worth Center
03:45PM 33.2286 -96.8200 358° North 366 421 19,600 2,040 Climbing Fort Worth Center
03:46PM 33.3456 -96.8217 359° North 374 430 21,500 1,860 Climbing Fort Worth Center
03:47PM 33.4436 -96.8208 360° North 384 442 23,400 1,680 Climbing Fort Worth Center
03:48PM 33.5519 -96.7656 23° Northeast 400 460 24,900 1,440 Climbing Fort Worth Center
03:49PM 33.6558 -96.6947 30° Northeast 413 475 26,300 1,020 Climbing Fort Worth Center
03:50PM 33.7661 -96.6239 28° Northeast 429 494 27,000 300 Climbing Fort Worth Center
03:51PM 33.8742 -96.5553 28° Northeast 437 503 27,000  Level Fort Worth Center
03:52PM 33.9822 -96.4867 28° Northeast 432 497 27,000  Level Fort Worth Center
03:53PM 34.0964 -96.4053 31° Northeast 432 497 27,000  Level Fort Worth Center
03:54PM 34.1833 -96.3314 35° Northeast 415 478 27,000  Level Fort Worth Center
03:55PM 34.2847 -96.2472 34° Northeast 434 499 27,000  Level Fort Worth Center
03:56PM 34.3864 -96.1653 34° Northeast 439 505 27,000  Level Fort Worth Center
03:57PM 34.4878 -96.0833 34° Northeast 439 505 27,000  Level Fort Worth Center
03:58PM 34.5889 -95.9958 35° Northeast 439 505 27,000  Level Fort Worth Center
03:59PM 34.6922 -95.9133 33° Northeast 439 505 27,000  Level Fort Worth Center
04:00PM 34.7933 -95.8281 35° Northeast 434 499 27,000  Level Fort Worth Center
04:01PM 34.9050 -95.7325 35° Northeast 434 499 27,000  Level Fort Worth Center
04:02PM 35.0058 -95.6442 36° Northeast 439 505 27,000  Level Fort Worth Center
04:04PM 35.1533 -95.4975 39° Northeast 442 509 27,000  Level Kansas City Center
04:04PM 35.1733 -95.4806 35° Northeast 433 498 27,000  Level Memphis Center
04:05PM 35.2708 -95.3900 37° Northeast 433 498 27,000  Level Memphis Center
04:06PM 35.3683 -95.2992 37° Northeast 433 498 27,000  Level Memphis Center
04:07PM 35.4639 -95.2053 39° Northeast 433 498 27,000  Level Memphis Center
04:08PM 35.5614 -95.1117 38° Northeast 433 498 27,000  Level Memphis Center
04:09PM 35.6586 -95.0175 38° Northeast 439 505 27,000  Level Memphis Center
04:10PM 35.7603 -94.9233 37° Northeast 439 505 27,000 300 Level Memphis Center
04:11PM 35.8575 -94.8289 38° Northeast 439 505 27,700 1,140 Climbing Memphis Center
04:12PM 35.9528 -94.7314 40° Northeast 439 505 29,300 1,500 Climbing Memphis Center
04:13PM 36.0497 -94.6392 38° Northeast 439 505 30,800 840 Climbing Memphis Center
04:14PM 36.1467 -94.5467 38° Northeast 434 499 31,000 660 Climbing Memphis Center
04:16PM 36.3533 -94.3414 39° Northeast 441 507 33,000 600 Climbing Kansas City Center
04:17PM 36.4475 -94.2483 38° Northeast 437 503 33,000  Level Kansas City Center
04:18PM 36.5422 -94.1550 38° Northeast 436 502 33,000  Level Kansas City Center
04:19PM 36.6411 -94.0614 37° Northeast 443 510 33,000  Level Kansas City Center
04:20PM 36.7606 -93.9514 36° Northeast 445 512 33,000  Level Kansas City Center
04:21PM 36.8611 -93.8603 36° Northeast 447 514 33,000  Level Kansas City Center
04:22PM 36.9622 -93.7644 37° Northeast 447 514 33,000  Level Kansas City Center
04:23PM 37.0631 -93.6692 37° Northeast 452 520 33,000  Level Kansas City Center
04:24PM 37.1644 -93.5753 36° Northeast 451 519 33,000  Level Kansas City Center
04:25PM 37.2636 -93.4819 37° Northeast 446 513 33,000  Level Kansas City Center
04:26PM 37.3658 -93.3892 36° Northeast 449 517 33,000  Level Kansas City Center
04:27PM 37.4647 -93.2922 38° Northeast 449 517 33,000  Level Kansas City Center
04:28PM 37.5856 -93.1778 37° Northeast 451 519 33,000  Level Kansas City Center
04:29PM 37.6889 -93.0797 37° Northeast 459 528 33,000  Level Kansas City Center
04:30PM 37.7911 -92.9803 38° Northeast 461 531 33,000  Level Kansas City Center
04:31PM 37.8914 -92.8850 37° Northeast 452 520 33,000  Level Kansas City Center
04:33PM 37.9917 -92.7875 37° Northeast 450 518 33,000  Level Kansas City Center
04:34PM 38.0839 -92.6981 37° Northeast 451 519 33,000  Level Kansas City Center
04:35PM 38.1956 -92.5919 37° Northeast 452 520 33,000  Level Kansas City Center
04:36PM 38.2975 -92.4917 38° Northeast 456 525 33,000  Level Kansas City Center
04:37PM 38.3989 -92.3922 38° Northeast 455 524 33,000  Level Kansas City Center
04:38PM 38.5186 -92.2747 38° Northeast 450 518 33,000  Level Kansas City Center
04:39PM 38.6186 -92.1756 38° Northeast 451 519 33,000  Level Kansas City Center
04:40PM 38.7197 -92.0758 38° Northeast 455 524 33,000  Level Kansas City Center
04:41PM 38.8197 -91.9761 38° Northeast 454 522 33,000  Level Kansas City Center
04:42PM 38.9172 -91.8778 38° Northeast 448 516 33,000  Level Kansas City Center
04:43PM 39.0156 -91.7803 38° Northeast 445 512 33,000  Level Kansas City Center
04:44PM 39.1164 -91.6806 37° Northeast 440 506 33,000  Level Kansas City Center
04:45PM 39.2142 -91.5828 38° Northeast 443 510 33,000  Level Kansas City Center
04:46PM 39.3136 -91.4819 38° Northeast 449 517 33,000  Level Kansas City Center
04:47PM 39.4122 -91.3819 38° Northeast 451 519 33,000  Level Kansas City Center
04:48PM 39.5294 -91.2636 38° Northeast 448 516 33,000  Level Kansas City Center
04:49PM 39.6272 -91.1642 38° Northeast 446 513 33,000  Level Kansas City Center
04:50PM 39.7258 -91.0619 39° Northeast 449 517 33,000  Level Kansas City Center
04:51PM 39.8350 -90.9525 38° Northeast 454 522 33,000  Level Kansas City Center
04:52PM 39.9336 -90.8536 38° Northeast 449 517 33,000  Level Kansas City Center
04:53PM 40.0319 -90.7544 38° Northeast 448 516 33,000  Level Kansas City Center
04:54PM 40.1322 -90.6539 37° Northeast 450 518 33,000  Level Kansas City Center
04:55PM 40.2311 -90.5517 38° Northeast 452 520 33,000  Level Kansas City Center
04:56PM 40.3492 -90.4314 38° Northeast 449 517 33,000 -180 Level Chicago Center
04:57PM 40.4478 -90.3303 38° Northeast 449 517 32,700 -600 Descending Chicago Center
04:58PM 40.5453 -90.2306 38° Northeast 444 511 31,800 -1,200 Descending Chicago Center
04:59PM 40.6594 -90.1083 39° Northeast 442 509 30,300 -1,440 Descending Chicago Center
05:01PM 40.7614 -90.0083 37° Northeast 452 520 28,900 -1,380 Descending Chicago Center
05:02PM 40.8575 -89.9069 39° Northeast 445 512 27,500 -1,380 Descending Chicago Center
05:03PM 40.9531 -89.8056 39° Northeast 441 507 26,100 -1,440 Descending Chicago Center
05:04PM 41.0558 -89.6981 38° Northeast 434 499 24,600 -1,080 Descending Chicago Center
05:05PM 41.1494 -89.5994 38° Northeast 430 495 23,900 -960 Descending Chicago Center
05:06PM 41.2125 -89.4644 58° Northeast 430 495 22,700 -1,860 Descending Chicago Center
05:07PM 41.2678 -89.3261 62° Northeast 425 489 20,100 -2,520 Descending Chicago Center
05:08PM 41.3269 -89.1778 62° Northeast 421 484 17,600 -2,280 Descending Chicago Center
05:09PM 41.3781 -89.0456 63° Northeast 408 470 15,400 -2,100 Descending Chicago Center
05:11PM 41.4875 -88.7736 62° Northeast 373 429 11,100 -1,440 Descending Chicago Center
05:12PM 41.5322 -88.6567 63° Northeast 359 413 11,000 -60 Descending Chicago Center
05:13PM 41.5731 -88.5522 62° Northeast 321 369 11,000 -240 Level Chicago Center
05:14PM 41.6156 -88.4536 60° Northeast 308 354 10,600 -720 Descending Chicago Center
05:15PM 41.6683 -88.3644 52° Northeast 306 352 9,600 -1,020 Descending Chicago Center
05:16PM 41.7481 -88.3269 19° North 311 358 8,600 -1,260 Descending Chicago Center
05:17PM 41.8461 -88.3011 11° North 300 345 7,100 -1,800 Descending Chicago Center
05:18PM 41.9228 -88.2861 North 282 325 5,000 -1,500 Descending Chicago Center
05:19PM 41.9644 -88.2272 46° Northeast 257 296 4,000 -540 Descending Chicago Center
05:20PM 41.9686 -88.1483 86° East 230 265 3,900 -480 Descending Chicago Center
05:21PM 41.9667 -88.1000 93° East 183 211 3,300 -1,140 Descending Chicago TRACON